Terminal Aerodrome Forecast
Issued by NWS

Home | Current Version | Previous Version | Text Only | Print | Product List | Glossary On
Versions: 1 2 3 4 5 6 7 8 9 10 11 12 13 14 15 16 17 18
000
FTUS44 KBMX 261237 AAA
TAFANB
TAF AMD
KANB 261237Z 2613/2712 25007KT 6SM BR OVC015
     FM261500 32012G18KT P6SM SCT250
     FM270300 04005KT P6SM BKN250=

USA.gov is the U.S. government's official web portal to all federal, state and local government web resources and services.